East Hebron, New York
Current Conditions -  °F | °C
As of 1:53 AM on Sunday 26 Oct 2014 (Local Time) from KGFL Reporting Station
Few Clouds Few Clouds  
Wind Chill: 46°   Ceiling: Unl
Heat Index: 49°   Visibility: 8mi
Dew Point: 46°   Wind: 7mph
Humidity: 90%   Direction: 180°S
Pressure: 29.47"   Gusts: NA
Location:  43.2004°N, 73.3317°W
Report Text: KGFL 260553Z AUTO 18006KT 8SM FEW047 09/08 A2947 RMK AO2 SLP982 60004 T00940078 10122 20067 58013
Loading
Personal Weather Stations






























Interactive Weather Map
Tropical Storm Tracking
New forecast layout! Learn more

10-Day Weather Forecast

Advertisements
Track Severe Weather on mobile